Time;durP1;ratioP1;P1;durP2;ratioP2;P2;SDS_P1;SDS_P2;PMS_P1;PMS_P2;Temp;Humidity;BMP_temperature;BMP_pressure;BME280_temperature;BME280_humidity;BME280_pressure;Samples;Min_cycle;Max_cycle;Signal;HPM_P1;HPM_P2
2022/06/23 00:01:14;;;;;;;3.65;1.30;;;;;;;;;;4987114;28;20405;-62
2022/06/23 00:03:40;;;;;;;4.40;0.98;;;;;;;;;;4986296;28;20023;-62
2022/06/23 00:06:07;;;;;;;4.28;0.98;;;;;;;;;;4986836;28;20025;-62
2022/06/23 00:08:44;;;;;;;4.78;1.20;;;;;;;;;;4986579;28;20043;-62
2022/06/23 00:11:22;;;;;;;3.83;1.13;;;;;;;;;;4985561;28;20022;-61
2022/06/23 00:13:49;;;;;;;2.47;1.00;;;;;;;;;;4986633;28;20030;-61
2022/06/23 00:16:21;;;;;;;1.60;0.80;;;;;;;;;;4986479;28;20519;-62
2022/06/23 00:18:47;;;;;;;2.03;1.08;;;;;;;;;;4985869;28;20030;-62
2022/06/23 00:21:20;;;;;;;1.50;0.90;;;;;;;;;;4985991;28;20033;-62
2022/06/23 00:23:48;;;;;;;2.00;0.82;;;;;;;;;;4986021;28;20631;-62
2022/06/23 00:26:22;;;;;;;3.28;0.95;;;;;;;;;;4986523;28;20062;-60
2022/06/23 00:28:50;;;;;;;2.88;1.08;;;;;;;;;;4986322;28;20554;-58
2022/06/23 00:31:22;;;;;;;3.33;1.15;;;;;;;;;;4989421;28;20034;-58
2022/06/23 00:33:49;;;;;;;2.75;0.93;;;;;;;;;;4988206;28;20156;-58
2022/06/23 00:36:38;;;;;;;3.83;1.05;;;;;;;;;;4988666;28;20034;-59
2022/06/23 00:39:06;;;;;;;1.92;0.90;;;;;;;;;;4981180;28;20050;-59
2022/06/23 00:41:35;;;;;;;3.13;1.00;;;;;;;;;;4988306;28;20121;-58
2022/06/23 00:44:05;;;;;;;2.58;0.90;;;;;;;;;;4988888;28;20385;-58
2022/06/23 00:46:38;;;;;;;1.65;0.93;;;;;;;;;;4988539;28;20374;-59
2022/06/23 00:49:15;;;;;;;1.63;0.75;;;;;;;;;;4988575;28;20018;-58
2022/06/23 00:51:48;;;;;;;2.08;1.02;;;;;;;;;;4987604;28;20031;-59
2022/06/23 00:54:24;;;;;;;4.53;1.45;;;;;;;;;;4988142;28;20571;-58
2022/06/23 00:56:53;;;;;;;1.95;1.00;;;;;;;;;;4988248;28;20385;-59
2022/06/23 00:59:29;;;;;;;3.65;0.90;;;;;;;;;;4987992;28;20527;-58
2022/06/23 01:02:03;;;;;;;2.85;1.00;;;;;;;;;;4985060;28;20085;-58
2022/06/23 01:04:47;;;;;;;2.90;1.20;;;;;;;;;;4986961;28;20153;-59
2022/06/23 01:07:19;;;;;;;2.00;1.10;;;;;;;;;;4987907;28;20125;-59
2022/06/23 01:09:45;;;;;;;2.55;0.90;;;;;;;;;;4987757;28;20038;-58
2022/06/23 01:12:19;;;;;;;2.38;1.02;;;;;;;;;;4988583;28;20121;-59
2022/06/23 01:14:55;;;;;;;3.97;0.80;;;;;;;;;;4987402;28;20112;-58
2022/06/23 01:17:31;;;;;;;2.67;0.80;;;;;;;;;;4986944;28;20105;-59
2022/06/23 01:20:10;;;;;;;1.13;0.80;;;;;;;;;;4986401;28;20489;-58
2022/06/23 01:23:05;;;;;;;4.13;1.10;;;;;;;;;;4987397;28;20029;-58
2022/06/23 01:25:38;;;;;;;4.25;1.35;;;;;;;;;;4974451;28;20038;-58
2022/06/23 01:28:21;;;;;;;2.75;0.90;;;;;;;;;;4988547;28;20741;-58
2022/06/23 01:31:05;;;;;;;2.35;1.00;;;;;;;;;;4987574;28;20050;-59
2022/06/23 01:33:39;;;;;;;2.97;1.00;;;;;;;;;;4987781;28;20038;-58
2022/06/23 01:36:20;;;;;;;4.07;1.10;;;;;;;;;;4987735;28;20079;-58
2022/06/23 01:38:50;;;;;;;1.95;0.90;;;;;;;;;;4987007;28;20038;-58
2022/06/23 01:41:25;;;;;;;2.38;1.00;;;;;;;;;;4986541;28;20065;-58
2022/06/23 01:44:11;;;;;;;3.58;1.00;;;;;;;;;;4986390;28;20034;-58
2022/06/23 01:46:39;;;;;;;3.13;1.08;;;;;;;;;;4956369;28;20045;-57
2022/06/23 01:49:26;;;;;;;2.35;1.15;;;;;;;;;;4987286;28;20457;-57
2022/06/23 01:52:02;;;;;;;1.88;1.10;;;;;;;;;;4987003;28;20460;-52
2022/06/23 01:54:31;;;;;;;1.42;0.80;;;;;;;;;;4986963;28;20037;-54
2022/06/23 01:57:00;;;;;;;2.38;1.00;;;;;;;;;;4987091;28;20049;-56
2022/06/23 01:59:36;;;;;;;2.53;1.00;;;;;;;;;;4986859;28;20062;-56
2022/06/23 02:02:06;;;;;;;3.72;1.55;;;;;;;;;;4987786;28;20069;-57
2022/06/23 02:04:38;;;;;;;2.70;1.27;;;;;;;;;;4986053;28;20481;-57
2022/06/23 02:07:24;;;;;;;2.42;1.30;;;;;;;;;;4987563;28;20216;-57
2022/06/23 02:09:54;;;;;;;2.42;1.05;;;;;;;;;;4956779;28;20103;-57
2022/06/23 02:12:24;;;;;;;3.10;1.17;;;;;;;;;;4985961;28;20710;-57
2022/06/23 02:14:59;;;;;;;2.33;1.30;;;;;;;;;;4990461;28;20034;-57
2022/06/23 02:17:34;;;;;;;1.17;0.98;;;;;;;;;;4989923;28;20136;-57
2022/06/23 02:20:16;;;;;;;1.45;0.90;;;;;;;;;;4991525;28;20061;-56
2022/06/23 02:22:43;;;;;;;2.53;1.05;;;;;;;;;;4989996;28;20026;-57
2022/06/23 02:25:31;;;;;;;3.65;1.05;;;;;;;;;;4990989;28;20070;-57
2022/06/23 02:28:04;;;;;;;4.72;1.00;;;;;;;;;;4990855;28;20076;-54
2022/06/23 02:30:39;;;;;;;2.10;0.88;;;;;;;;;;4990418;28;20026;-54
2022/06/23 02:33:20;;;;;;;1.42;0.70;;;;;;;;;;4990907;28;20513;-55
2022/06/23 02:36:09;;;;;;;2.65;1.00;;;;;;;;;;4990380;28;20026;-56
2022/06/23 02:38:47;;;;;;;3.17;1.15;;;;;;;;;;4962778;28;20057;-56
2022/06/23 02:41:19;;;;;;;2.65;1.00;;;;;;;;;;4990727;28;20440;-54
2022/06/23 02:43:50;;;;;;;2.95;0.95;;;;;;;;;;4990695;28;20038;-56
2022/06/23 02:46:39;;;;;;;1.42;0.80;;;;;;;;;;4990503;28;20026;-54
2022/06/23 02:49:19;;;;;;;1.77;0.80;;;;;;;;;;4982791;28;20062;-55
2022/06/23 02:51:48;;;;;;;3.50;1.40;;;;;;;;;;4990223;28;20401;-55
2022/06/23 02:54:14;;;;;;;2.13;0.90;;;;;;;;;;4990533;28;20105;-55
2022/06/23 02:56:59;;;;;;;1.27;0.75;;;;;;;;;;4988926;28;20416;-55
2022/06/23 02:59:31;;;;;;;1.52;0.60;;;;;;;;;;4987053;28;20048;-55
2022/06/23 03:02:00;;;;;;;2.30;0.70;;;;;;;;;;4988523;28;20073;-55
2022/06/23 03:04:29;;;;;;;2.30;0.80;;;;;;;;;;4988696;28;20034;-55
2022/06/23 03:07:08;;;;;;;4.72;0.90;;;;;;;;;;4988065;28;20452;-54
2022/06/23 03:09:39;;;;;;;4.20;1.27;;;;;;;;;;4988694;28;20041;-55
2022/06/23 03:12:11;;;;;;;2.70;1.08;;;;;;;;;;4989058;28;20041;-54
2022/06/23 03:14:48;;;;;;;2.17;0.90;;;;;;;;;;4988333;28;20545;-55
2022/06/23 03:17:19;;;;;;;3.35;1.13;;;;;;;;;;4988469;28;20040;-55
2022/06/23 03:20:06;;;;;;;2.33;1.00;;;;;;;;;;4988212;28;20429;-56
2022/06/23 03:22:41;;;;;;;2.97;1.20;;;;;;;;;;4958078;28;20041;-55
2022/06/23 03:25:13;;;;;;;1.77;0.90;;;;;;;;;;4987080;28;20085;-54
2022/06/23 03:27:52;;;;;;;1.98;0.88;;;;;;;;;;4987861;28;20030;-55
2022/06/23 03:30:18;;;;;;;2.38;1.10;;;;;;;;;;4988148;28;20034;-55
2022/06/23 03:33:11;;;;;;;2.33;1.17;;;;;;;;;;4987646;28;20030;-56
2022/06/23 03:35:42;;;;;;;2.85;1.20;;;;;;;;;;4984802;28;20479;-55
2022/06/23 03:38:20;;;;;;;4.32;1.02;;;;;;;;;;4989393;28;20410;-55
2022/06/23 03:43:50;;;;;;;1.95;1.00;;;;;;;;;;4987656;28;20073;-55
2022/06/23 03:46:16;;;;;;;1.92;1.00;;;;;;;;;;4987956;28;20034;-56
2022/06/23 03:49:08;;;;;;;1.98;0.85;;;;;;;;;;4987672;28;20022;-55
2022/06/23 03:51:39;;;;;;;2.65;0.90;;;;;;;;;;4947860;28;20436;-55
2022/06/23 03:54:17;;;;;;;3.10;1.05;;;;;;;;;;4988266;28;20030;-56
2022/06/23 03:57:13;;;;;;;2.03;0.90;;;;;;;;;;4987605;28;20469;-53
2022/06/23 03:59:48;;;;;;;1.85;1.00;;;;;;;;;;4974655;28;20092;-55
2022/06/23 04:02:20;;;;;;;3.03;0.90;;;;;;;;;;4987700;28;20033;-55
2022/06/23 04:04:48;;;;;;;2.13;1.10;;;;;;;;;;4987232;28;20050;-54
2022/06/23 04:07:29;;;;;;;3.00;1.00;;;;;;;;;;4986815;28;20084;-55
2022/06/23 04:10:01;;;;;;;2.50;0.93;;;;;;;;;;4987834;28;20259;-56
2022/06/23 04:12:29;;;;;;;1.95;0.93;;;;;;;;;;4987366;28;20033;-56
2022/06/23 04:15:03;;;;;;;1.92;1.05;;;;;;;;;;4987367;28;20038;-56
2022/06/23 04:17:54;;;;;;;1.55;0.80;;;;;;;;;;4987404;28;20033;-54
2022/06/23 04:20:40;;;;;;;2.42;0.98;;;;;;;;;;4987196;28;20836;-56
2022/06/23 04:23:13;;;;;;;2.17;1.00;;;;;;;;;;4987402;28;20030;-56
2022/06/23 04:25:51;;;;;;;1.73;0.98;;;;;;;;;;4986267;28;20030;-55
2022/06/23 04:28:26;;;;;;;2.40;0.90;;;;;;;;;;4987217;28;20092;-56
2022/06/23 04:30:54;;;;;;;2.92;0.90;;;;;;;;;;4986564;28;20026;-56
2022/06/23 04:33:22;;;;;;;2.53;0.98;;;;;;;;;;4987012;28;20037;-55
2022/06/23 04:35:50;;;;;;;1.90;1.00;;;;;;;;;;4986705;28;20026;-55
2022/06/23 04:38:20;;;;;;;3.67;0.98;;;;;;;;;;4986370;28;20045;-55
2022/06/23 04:40:53;;;;;;;1.60;0.75;;;;;;;;;;4986577;28;20034;-55
2022/06/23 04:43:22;;;;;;;5.57;0.90;;;;;;;;;;4986716;28;20045;-55
2022/06/23 04:45:48;;;;;;;2.72;0.95;;;;;;;;;;4986452;28;20640;-56
2022/06/23 04:48:18;;;;;;;2.92;1.05;;;;;;;;;;4986900;28;20101;-55
2022/06/23 04:50:54;;;;;;;3.08;0.88;;;;;;;;;;4986403;28;20041;-55
2022/06/23 04:53:27;;;;;;;2.10;0.77;;;;;;;;;;4986945;28;20038;-56
2022/06/23 04:56:16;;;;;;;2.85;1.00;;;;;;;;;;4986362;28;20022;-55
2022/06/23 04:58:46;;;;;;;1.30;0.80;;;;;;;;;;4957623;28;20042;-55
2022/06/23 05:01:15;;;;;;;2.38;1.38;;;;;;;;;;4986235;28;20547;-56
2022/06/23 05:03:45;;;;;;;3.50;1.15;;;;;;;;;;4986107;28;20037;-56
2022/06/23 05:06:20;;;;;;;1.30;0.90;;;;;;;;;;4986694;28;20026;-56
2022/06/23 05:08:47;;;;;;;1.42;0.90;;;;;;;;;;4985247;28;20109;-56
2022/06/23 05:11:25;;;;;;;1.85;1.00;;;;;;;;;;4986290;28;20050;-56
2022/06/23 05:13:55;;;;;;;2.45;1.00;;;;;;;;;;4985963;28;20068;-56
2022/06/23 05:16:28;;;;;;;2.28;0.93;;;;;;;;;;4985954;28;20088;-56
2022/06/23 05:18:55;;;;;;;1.55;0.88;;;;;;;;;;4986145;28;20061;-55
2022/06/23 05:21:30;;;;;;;1.63;0.80;;;;;;;;;;4986205;28;20433;-56
2022/06/23 05:23:59;;;;;;;;;;;;;;;;;;4986453;28;20027;-56
2022/06/23 05:26:26;;;;;;;2.70;1.00;;;;;;;;;;4985729;28;19921;-56
2022/06/23 05:28:59;;;;;;;4.28;0.90;;;;;;;;;;4985462;28;20042;-56
2022/06/23 05:31:29;;;;;;;2.80;1.10;;;;;;;;;;4986148;28;20037;-55
2022/06/23 05:33:59;;;;;;;1.80;0.90;;;;;;;;;;4985949;28;20081;-56
2022/06/23 05:36:31;;;;;;;2.10;0.95;;;;;;;;;;4985717;28;20113;-57
2022/06/23 05:39:07;;;;;;;2.10;0.85;;;;;;;;;;4985682;28;20030;-57
2022/06/23 05:41:34;;;;;;;1.95;1.10;;;;;;;;;;4985946;28;20038;-55
2022/06/23 05:44:03;;;;;;;2.00;1.00;;;;;;;;;;4986142;28;20519;-56
2022/06/23 05:46:31;;;;;;;1.23;0.60;;;;;;;;;;4985248;28;20048;-56
2022/06/23 05:49:02;;;;;;;0.73;0.70;;;;;;;;;;4983555;28;20114;-56
2022/06/23 05:51:36;;;;;;;1.60;0.70;;;;;;;;;;4987038;28;20029;-56
2022/06/23 05:54:15;;;;;;;2.83;1.20;;;;;;;;;;4986278;28;20117;-56
2022/06/23 05:56:50;;;;;;;1.70;1.00;;;;;;;;;;4985482;28;20034;-57
2022/06/23 05:59:25;;;;;;;2.33;0.93;;;;;;;;;;4986251;28;20038;-57
2022/06/23 06:02:01;;;;;;;1.85;0.82;;;;;;;;;;4986947;28;20113;-57
2022/06/23 06:04:32;;;;;;;1.17;0.70;;;;;;;;;;4986656;28;20027;-57
2022/06/23 06:06:59;;;;;;;2.00;0.80;;;;;;;;;;4986353;28;20424;-56
2022/06/23 06:09:36;;;;;;;2.60;1.13;;;;;;;;;;4996754;28;20031;-57
2022/06/23 06:12:04;;;;;;;1.05;0.70;;;;;;;;;;4987472;28;20030;-57
2022/06/23 06:14:32;;;;;;;1.23;0.70;;;;;;;;;;4986640;28;20025;-57
2022/06/23 06:16:59;;;;;;;0.95;0.57;;;;;;;;;;4995848;28;20524;-56
2022/06/23 06:19:27;;;;;;;1.42;0.90;;;;;;;;;;4989293;28;20464;-57
2022/06/23 06:21:54;;;;;;;1.50;0.82;;;;;;;;;;4986556;28;20027;-57
2022/06/23 06:24:26;;;;;;;1.27;0.73;;;;;;;;;;4986504;28;20528;-57
2022/06/23 06:26:54;;;;;;;2.85;0.82;;;;;;;;;;4986765;28;20111;-57
2022/06/23 06:29:20;;;;;;;2.08;0.70;;;;;;;;;;4986734;28;20033;-57
2022/06/23 06:32:00;;;;;;;2.20;0.88;;;;;;;;;;4986073;28;20597;-57
2022/06/23 06:34:32;;;;;;;0.85;0.50;;;;;;;;;;4994780;28;20101;-57
2022/06/23 06:36:58;;;;;;;1.85;0.75;;;;;;;;;;4985168;28;20031;-57
2022/06/23 06:39:29;;;;;;;1.30;0.60;;;;;;;;;;4986195;28;20058;-57
2022/06/23 06:42:10;;;;;;;1.50;0.80;;;;;;;;;;4984265;28;20420;-56
2022/06/23 06:44:39;;;;;;;2.05;0.98;;;;;;;;;;4984525;28;20031;-57
2022/06/23 06:47:05;;;;;;;1.13;0.70;;;;;;;;;;4989068;28;20121;-57
2022/06/23 06:49:32;;;;;;;1.85;0.80;;;;;;;;;;5006670;28;20408;-57
2022/06/23 06:51:59;;;;;;;1.00;0.73;;;;;;;;;;5005765;28;20030;-57
2022/06/23 06:54:40;;;;;;;2.00;1.40;;;;;;;;;;4998233;28;20062;-57
2022/06/23 06:57:10;;;;;;;1.73;0.82;;;;;;;;;;4989958;28;20369;-57
2022/06/23 06:59:56;;;;;;;1.80;0.88;;;;;;;;;;4987551;28;20101;-56
2022/06/23 07:02:25;;;;;;;0.77;0.55;;;;;;;;;;4975725;28;20487;-57
2022/06/23 07:05:10;;;;;;;1.13;0.70;;;;;;;;;;4990174;28;20038;-57
2022/06/23 07:07:39;;;;;;;2.08;0.60;;;;;;;;;;4981053;28;20036;-56
2022/06/23 07:10:08;;;;;;;2.05;0.70;;;;;;;;;;4989079;28;20077;-57
2022/06/23 07:12:40;;;;;;;2.67;1.00;;;;;;;;;;4988011;28;20170;-57
2022/06/23 07:15:06;;;;;;;2.30;0.82;;;;;;;;;;4995016;28;20069;-57
2022/06/23 07:17:37;;;;;;;2.50;0.80;;;;;;;;;;4990337;28;20036;-57
2022/06/23 07:20:10;;;;;;;2.47;1.00;;;;;;;;;;4990892;28;20570;-56
2022/06/23 07:22:41;;;;;;;0.63;0.55;;;;;;;;;;4989869;28;20018;-57
2022/06/23 07:25:12;;;;;;;1.15;0.60;;;;;;;;;;4990361;28;20045;-57
2022/06/23 07:27:42;;;;;;;0.93;0.60;;;;;;;;;;4990215;28;20509;-57
2022/06/23 07:30:17;;;;;;;1.35;0.73;;;;;;;;;;5004918;28;20044;-56
2022/06/23 07:32:49;;;;;;;1.17;0.60;;;;;;;;;;4994677;28;20026;-57
2022/06/23 07:35:27;;;;;;;1.15;0.60;;;;;;;;;;5007567;28;20511;-57
2022/06/23 07:37:58;;;;;;;1.77;0.60;;;;;;;;;;5007837;28;20036;-57
2022/06/23 07:40:26;;;;;;;1.25;0.60;;;;;;;;;;5002074;28;20516;-56
2022/06/23 07:43:12;;;;;;;2.45;0.80;;;;;;;;;;5010074;28;20575;-58
2022/06/23 07:45:57;;;;;;;1.40;0.70;;;;;;;;;;4996295;28;20046;-58
2022/06/23 07:48:24;;;;;;;1.08;0.80;;;;;;;;;;4989266;28;20026;-57
2022/06/23 07:50:50;;;;;;;3.15;0.70;;;;;;;;;;4989986;28;20088;-58
2022/06/23 07:53:18;;;;;;;1.10;0.73;;;;;;;;;;5002773;28;20058;-58
2022/06/23 07:55:45;;;;;;;3.85;1.00;;;;;;;;;;5005993;28;20069;-57
2022/06/23 07:58:14;;;;;;;1.70;0.80;;;;;;;;;;4990057;28;20037;-57
2022/06/23 08:00:41;;;;;;;2.53;0.60;;;;;;;;;;5000080;28;20110;-57
2022/06/23 08:03:13;;;;;;;0.98;0.60;;;;;;;;;;4988903;28;20030;-58
2022/06/23 08:05:59;;;;;;;1.80;0.75;;;;;;;;;;4992304;28;20022;-57
2022/06/23 08:08:28;;;;;;;2.58;1.00;;;;;;;;;;4985852;28;20386;-58
2022/06/23 08:13:45;;;;;;;1.30;0.60;;;;;;;;;;4994932;28;20133;-57
2022/06/23 08:19:01;;;;;;;1.15;0.60;;;;;;;;;;4989607;28;20118;-58
2022/06/23 08:21:29;;;;;;;0.63;0.50;;;;;;;;;;4989366;28;20035;-58
2022/06/23 08:24:07;;;;;;;1.08;0.60;;;;;;;;;;4989274;28;20022;-58
2022/06/23 08:26:36;;;;;;;1.30;0.40;;;;;;;;;;4989068;28;20109;-58
2022/06/23 08:29:03;;;;;;;1.27;0.60;;;;;;;;;;4989396;28;20033;-57
2022/06/23 08:31:31;;;;;;;1.13;0.50;;;;;;;;;;4998494;28;20041;-57
2022/06/23 08:33:58;;;;;;;0.73;0.52;;;;;;;;;;4995658;28;20567;-57
2022/06/23 08:36:28;;;;;;;0.30;0.30;;;;;;;;;;4989046;28;20042;-56
2022/06/23 08:38:55;;;;;;;1.60;0.57;;;;;;;;;;4988276;28;20568;-57
2022/06/23 08:41:21;;;;;;;1.58;0.43;;;;;;;;;;4990337;28;20034;-56
2022/06/23 08:43:56;;;;;;;1.00;0.50;;;;;;;;;;4988661;28;20049;-57
2022/06/23 08:46:25;;;;;;;1.40;0.47;;;;;;;;;;4987250;28;20493;-56
2022/06/23 08:49:07;;;;;;;0.98;0.38;;;;;;;;;;4987926;28;20030;-54
2022/06/23 08:51:50;;;;;;;1.17;0.47;;;;;;;;;;4986647;28;20793;-57
2022/06/23 08:54:19;;;;;;;1.33;0.60;;;;;;;;;;4982592;28;20034;-57
2022/06/23 08:56:47;;;;;;;1.17;0.60;;;;;;;;;;4980834;28;20056;-56
2022/06/23 08:59:18;;;;;;;0.47;0.40;;;;;;;;;;4978198;28;20042;-56
2022/06/23 09:01:47;;;;;;;1.48;0.55;;;;;;;;;;4979363;28;20030;-57
2022/06/23 09:04:21;;;;;;;0.70;0.40;;;;;;;;;;4980376;28;20180;-57
2022/06/23 09:06:57;;;;;;;1.60;0.80;;;;;;;;;;4980312;28;20451;-56
2022/06/23 09:09:27;;;;;;;2.65;0.60;;;;;;;;;;4972286;28;20049;-57
2022/06/23 09:12:03;;;;;;;0.40;0.40;;;;;;;;;;4977819;28;20026;-55
2022/06/23 09:14:36;;;;;;;0.60;0.40;;;;;;;;;;4978731;28;20030;-56
2022/06/23 09:17:09;;;;;;;3.58;0.73;;;;;;;;;;4975157;28;20114;-57
2022/06/23 09:19:42;;;;;;;0.80;0.52;;;;;;;;;;4976048;28;20027;-54
2022/06/23 09:22:18;;;;;;;1.52;0.70;;;;;;;;;;4994446;28;20034;-56
2022/06/23 09:24:44;;;;;;;1.08;0.65;;;;;;;;;;4977767;28;20417;-55
2022/06/23 09:27:28;;;;;;;1.25;0.57;;;;;;;;;;4979459;28;20026;-57
2022/06/23 09:29:55;;;;;;;;;;;;;;;;;;4979094;28;20037;-57
2022/06/23 09:32:25;;;;;;;1.10;0.80;;;;;;;;;;4978862;28;19920;-56
2022/06/23 09:34:51;;;;;;;0.88;0.57;;;;;;;;;;4979341;28;20030;-57
2022/06/23 09:37:36;;;;;;;1.10;0.50;;;;;;;;;;4979928;28;20038;-57
2022/06/23 09:40:03;;;;;;;2.95;0.70;;;;;;;;;;4979279;28;20030;-57
2022/06/23 09:42:49;;;;;;;0.90;0.50;;;;;;;;;;4981430;28;20037;-57
2022/06/23 09:45:21;;;;;;;0.93;0.60;;;;;;;;;;4979728;28;20069;-56
2022/06/23 09:48:07;;;;;;;0.50;0.40;;;;;;;;;;4978484;28;20465;-57
2022/06/23 09:50:33;;;;;;;3.30;0.90;;;;;;;;;;4974912;28;20038;-58
2022/06/23 09:53:19;;;;;;;2.28;0.75;;;;;;;;;;4979871;28;20058;-57
2022/06/23 09:56:03;;;;;;;2.65;0.90;;;;;;;;;;4977046;28;20038;-57
2022/06/23 09:58:46;;;;;;;3.85;1.08;;;;;;;;;;4977439;28;20323;-57
2022/06/23 10:01:27;;;;;;;3.20;1.17;;;;;;;;;;4976573;28;20031;-58
2022/06/23 10:04:02;;;;;;;3.58;1.33;;;;;;;;;;4976958;28;20065;-56
2022/06/23 10:06:41;;;;;;;4.05;1.38;;;;;;;;;;4979616;28;20034;-56
2022/06/23 10:09:16;;;;;;;3.03;1.00;;;;;;;;;;4975238;28;20041;-57
2022/06/23 10:11:54;;;;;;;3.17;1.13;;;;;;;;;;4976800;28;20249;-57
2022/06/23 10:14:20;;;;;;;3.13;1.00;;;;;;;;;;4977515;28;20056;-58
2022/06/23 10:16:49;;;;;;;5.72;1.65;;;;;;;;;;4978347;28;20571;-57
2022/06/23 10:19:24;;;;;;;3.80;1.55;;;;;;;;;;4979907;28;20042;-57
2022/06/23 10:21:50;;;;;;;7.60;1.88;;;;;;;;;;4977486;28;20049;-59
2022/06/23 10:24:22;;;;;;;5.93;1.95;;;;;;;;;;4979433;28;20038;-59
2022/06/23 10:26:56;;;;;;;3.55;1.60;;;;;;;;;;4979948;28;20037;-59
2022/06/23 10:29:34;;;;;;;5.10;1.73;;;;;;;;;;4985038;28;20037;-59
2022/06/23 10:32:03;;;;;;;4.85;1.73;;;;;;;;;;4987650;28;20027;-58
2022/06/23 10:34:49;;;;;;;4.90;1.60;;;;;;;;;;4983683;28;20101;-58
2022/06/23 10:37:21;;;;;;;16.83;2.97;;;;;;;;;;4984065;28;20038;-57
2022/06/23 10:39:58;;;;;;;8.30;2.42;;;;;;;;;;4983808;28;20117;-58
2022/06/23 10:42:33;;;;;;;5.60;1.90;;;;;;;;;;4980891;28;20030;-57
2022/06/23 10:45:08;;;;;;;6.35;2.03;;;;;;;;;;4983235;28;20034;-58
2022/06/23 10:47:55;;;;;;;3.63;1.90;;;;;;;;;;4984461;28;20031;-57
2022/06/23 10:50:27;;;;;;;11.75;2.28;;;;;;;;;;4986987;28;20031;-58
2022/06/23 10:53:12;;;;;;;5.75;1.88;;;;;;;;;;4991478;28;20556;-58
2022/06/23 10:55:41;;;;;;;6.93;2.38;;;;;;;;;;4990908;28;20030;-58
2022/06/23 10:58:33;;;;;;;7.45;2.78;;;;;;;;;;4990732;28;20069;-58
2022/06/23 11:01:06;;;;;;;6.63;2.42;;;;;;;;;;4963873;28;20034;-57
2022/06/23 11:03:35;;;;;;;7.85;1.80;;;;;;;;;;4987887;28;20022;-58
2022/06/23 11:06:11;;;;;;;3.42;1.30;;;;;;;;;;4971476;28;20027;-55
2022/06/23 11:08:40;;;;;;;6.20;1.98;;;;;;;;;;4986096;28;20041;-58
2022/06/23 11:11:13;;;;;;;5.35;2.00;;;;;;;;;;4988058;28;20112;-55
2022/06/23 11:13:57;;;;;;;8.43;2.00;;;;;;;;;;4989780;28;20034;-56
2022/06/23 11:16:32;;;;;;;5.63;2.08;;;;;;;;;;4989045;28;20088;-55
2022/06/23 11:19:17;;;;;;;5.25;1.88;;;;;;;;;;4988225;28;20113;-55
2022/06/23 11:21:49;;;;;;;6.05;1.85;;;;;;;;;;4989016;28;20030;-55
2022/06/23 11:24:17;;;;;;;11.10;2.50;;;;;;;;;;4989261;28;20026;-55
2022/06/23 11:27:02;;;;;;;10.32;3.15;;;;;;;;;;4987022;28;20057;-56
2022/06/23 11:29:34;;;;;;;15.57;3.67;;;;;;;;;;4984964;28;20022;-55
2022/06/23 11:32:01;;;;;;;11.13;3.17;;;;;;;;;;4989497;28;20321;-55
2022/06/23 11:34:28;;;;;;;13.20;3.42;;;;;;;;;;4987683;28;20022;-55
2022/06/23 11:37:11;;;;;;;13.32;4.22;;;;;;;;;;4989220;28;20034;-56
2022/06/23 11:39:46;;;;;;;8.07;2.40;;;;;;;;;;4978968;28;20053;-57
2022/06/23 11:42:35;;;;;;;5.82;2.00;;;;;;;;;;4981141;28;20026;-56
2022/06/23 11:45:01;;;;;;;8.25;2.63;;;;;;;;;;4987189;28;20026;-57
2022/06/23 11:47:30;;;;;;;8.95;3.03;;;;;;;;;;4984998;28;20038;-56
2022/06/23 11:49:59;;;;;;;7.93;2.40;;;;;;;;;;4987840;28;20470;-57
2022/06/23 11:52:31;;;;;;;4.28;1.67;;;;;;;;;;4984355;28;20026;-56
2022/06/23 11:55:16;;;;;;;3.47;1.60;;;;;;;;;;4988860;28;20026;-56
2022/06/23 11:58:01;;;;;;;4.82;1.60;;;;;;;;;;4978185;28;20030;-57
2022/06/23 12:00:47;;;;;;;10.18;2.95;;;;;;;;;;4989102;28;20026;-57
2022/06/23 12:03:24;;;;;;;8.70;2.22;;;;;;;;;;4972108;28;20042;-57
2022/06/23 12:06:09;;;;;;;7.45;2.30;;;;;;;;;;4983928;28;20109;-56
2022/06/23 12:08:47;;;;;;;10.27;2.55;;;;;;;;;;4985903;28;20045;-57
2022/06/23 12:11:13;;;;;;;6.60;2.55;;;;;;;;;;4980890;28;20428;-56
2022/06/23 12:13:40;;;;;;;12.50;3.50;;;;;;;;;;4984077;28;20579;-56
2022/06/23 12:16:07;;;;;;;6.82;2.42;;;;;;;;;;4979506;28;20026;-57
2022/06/23 12:18:46;;;;;;;5.78;2.13;;;;;;;;;;4979652;28;20035;-56
2022/06/23 12:21:19;;;;;;;4.45;1.90;;;;;;;;;;4977712;28;20037;-57
2022/06/23 12:23:52;;;;;;;5.97;1.80;;;;;;;;;;4978347;28;20057;-56
2022/06/23 12:26:39;;;;;;;6.20;2.20;;;;;;;;;;4978778;28;20504;-56
2022/06/23 12:29:15;;;;;;;4.13;1.70;;;;;;;;;;4979725;28;20066;-56
2022/06/23 12:31:46;;;;;;;6.68;2.42;;;;;;;;;;4979793;28;20038;-56
2022/06/23 12:34:32;;;;;;;7.47;2.30;;;;;;;;;;4979806;28;20400;-57
2022/06/23 12:37:16;;;;;;;4.80;1.67;;;;;;;;;;4979540;28;20425;-57
2022/06/23 12:40:09;;;;;;;2.63;1.48;;;;;;;;;;4980624;28;20339;-57
2022/06/23 12:42:37;;;;;;;3.83;1.55;;;;;;;;;;4949624;28;20046;-57
2022/06/23 12:45:13;;;;;;;3.83;1.38;;;;;;;;;;4981502;28;20030;-57
2022/06/23 12:47:58;;;;;;;5.32;1.85;;;;;;;;;;4978491;28;20026;-57
2022/06/23 12:50:33;;;;;;;14.07;3.53;;;;;;;;;;4980678;28;20039;-57
2022/06/23 12:53:02;;;;;;;7.60;2.35;;;;;;;;;;4979216;28;20109;-58
2022/06/23 12:55:37;;;;;;;8.73;2.33;;;;;;;;;;4979808;28;20129;-57
2022/06/23 12:58:03;;;;;;;8.48;2.33;;;;;;;;;;4978366;28;20041;-57
2022/06/23 13:00:35;;;;;;;4.65;1.55;;;;;;;;;;4978897;28;20409;-58
2022/06/23 13:03:11;;;;;;;5.20;1.77;;;;;;;;;;4975331;28;20057;-58
2022/06/23 13:05:45;;;;;;;4.85;1.80;;;;;;;;;;4985557;28;20037;-58
2022/06/23 13:08:17;;;;;;;4.63;1.30;;;;;;;;;;4985002;28;20030;-58
2022/06/23 13:10:45;;;;;;;6.07;1.50;;;;;;;;;;4984114;28;20034;-59
2022/06/23 13:13:14;;;;;;;4.75;1.58;;;;;;;;;;4985847;28;20470;-60
2022/06/23 13:15:40;;;;;;;4.63;1.40;;;;;;;;;;4991471;28;20034;-57
2022/06/23 13:18:29;;;;;;;3.92;1.50;;;;;;;;;;4986078;28;20379;-58
2022/06/23 13:21:05;;;;;;;6.78;1.85;;;;;;;;;;4979798;28;20046;-57
2022/06/23 13:23:39;;;;;;;6.38;1.60;;;;;;;;;;4984959;28;20626;-57
2022/06/23 13:26:12;;;;;;;5.05;1.70;;;;;;;;;;4974566;28;20030;-57
2022/06/23 13:28:40;;;;;;;4.07;1.57;;;;;;;;;;4985235;28;20026;-57
2022/06/23 13:31:24;;;;;;;7.22;2.13;;;;;;;;;;4968372;28;20030;-57
2022/06/23 13:33:55;;;;;;;6.03;1.85;;;;;;;;;;4985257;28;20034;-57
2022/06/23 13:36:24;;;;;;;6.30;2.00;;;;;;;;;;4984464;28;20041;-56
2022/06/23 13:38:54;;;;;;;3.03;1.30;;;;;;;;;;4983586;28;20030;-57
2022/06/23 13:41:32;;;;;;;3.90;1.30;;;;;;;;;;4985150;28;20351;-57
2022/06/23 13:44:19;;;;;;;2.78;1.38;;;;;;;;;;4987433;28;20099;-57
2022/06/23 13:46:57;;;;;;;4.53;1.58;;;;;;;;;;4976810;28;20030;-57
2022/06/23 13:49:39;;;;;;;2.30;1.13;;;;;;;;;;4977397;28;20037;-57
2022/06/23 13:52:09;;;;;;;1.83;1.13;;;;;;;;;;4985058;28;20030;-57
2022/06/23 13:54:36;;;;;;;4.63;1.35;;;;;;;;;;4982720;28;20412;-57
2022/06/23 13:57:17;;;;;;;1.55;0.90;;;;;;;;;;4985521;28;20049;-57
2022/06/23 13:59:52;;;;;;;3.17;1.40;;;;;;;;;;4984544;28;20694;-57
2022/06/23 14:02:29;;;;;;;4.38;1.27;;;;;;;;;;4984956;28;20312;-57
2022/06/23 14:05:16;;;;;;;5.15;2.00;;;;;;;;;;4985401;28;20030;-57
2022/06/23 14:07:48;;;;;;;3.13;1.00;;;;;;;;;;4983357;28;20088;-57
2022/06/23 14:10:20;;;;;;;1.17;0.77;;;;;;;;;;4983613;28;20045;-57
2022/06/23 14:12:51;;;;;;;2.17;0.95;;;;;;;;;;4984671;28;20065;-58
2022/06/23 14:15:26;;;;;;;3.70;1.15;;;;;;;;;;4981070;28;20426;-57
2022/06/23 14:18:04;;;;;;;2.08;0.88;;;;;;;;;;4984614;28;20412;-57
2022/06/23 14:20:43;;;;;;;2.35;1.20;;;;;;;;;;4980787;28;20054;-57
2022/06/23 14:23:27;;;;;;;2.45;1.30;;;;;;;;;;4974218;28;20026;-57
2022/06/23 14:26:11;;;;;;;1.27;0.80;;;;;;;;;;4984226;28;20027;-58
2022/06/23 14:28:40;;;;;;;3.50;1.15;;;;;;;;;;4984839;28;20030;-56
2022/06/23 14:31:07;;;;;;;1.05;0.70;;;;;;;;;;4985325;28;20030;-58
2022/06/23 14:33:36;;;;;;;2.47;1.08;;;;;;;;;;4983334;28;20035;-58
2022/06/23 14:36:12;;;;;;;2.25;0.90;;;;;;;;;;4983593;28;20394;-58
2022/06/23 14:38:45;;;;;;;1.80;0.85;;;;;;;;;;4984662;28;20022;-58
2022/06/23 14:41:30;;;;;;;1.98;1.08;;;;;;;;;;4985091;28;20041;-58
2022/06/23 14:43:56;;;;;;;;;;;;;;;;;;4986195;28;20034;-58
2022/06/23 14:46:21;;;;;;;2.75;1.10;;;;;;;;;;4985006;28;19910;-57
2022/06/23 14:49:00;;;;;;;1.83;1.00;;;;;;;;;;4984906;28;20037;-58
2022/06/23 14:51:45;;;;;;;1.45;0.77;;;;;;;;;;4985428;28;20026;-57
2022/06/23 14:54:14;;;;;;;2.22;1.05;;;;;;;;;;4985170;28;20572;-58
2022/06/23 14:56:41;;;;;;;2.00;1.05;;;;;;;;;;4984944;28;20075;-57
2022/06/23 14:59:15;;;;;;;1.63;0.80;;;;;;;;;;4985349;28;20113;-57
2022/06/23 15:01:42;;;;;;;1.80;0.75;;;;;;;;;;4982353;28;20027;-58
2022/06/23 15:04:08;;;;;;;1.35;0.80;;;;;;;;;;4974530;28;20059;-58
2022/06/23 15:06:34;;;;;;;1.83;0.75;;;;;;;;;;4976814;28;20098;-57
2022/06/23 15:09:06;;;;;;;1.98;0.90;;;;;;;;;;4986863;28;20114;-57
2022/06/23 15:11:45;;;;;;;1.55;1.23;;;;;;;;;;4986109;28;20130;-58
2022/06/23 15:14:23;;;;;;;1.25;0.95;;;;;;;;;;4985840;28;20035;-57
2022/06/23 15:16:49;;;;;;;3.33;1.20;;;;;;;;;;4986300;28;20033;-57
2022/06/23 15:19:19;;;;;;;1.55;0.70;;;;;;;;;;4986382;28;20037;-57
2022/06/23 15:24:53;;;;;;;3.00;1.02;;;;;;;;;;4988741;28;20037;-57
2022/06/23 15:27:30;;;;;;;2.38;0.82;;;;;;;;;;4988933;28;20022;-57
2022/06/23 15:30:05;;;;;;;2.38;1.00;;;;;;;;;;4990076;28;20030;-57
2022/06/23 15:32:34;;;;;;;3.63;1.00;;;;;;;;;;4989648;28;20037;-57
2022/06/23 15:35:20;;;;;;;2.90;0.77;;;;;;;;;;4990273;28;20029;-57